createdAt,value
2018-05-02T00:02:00.639Z,6.55
2018-05-02T00:04:27.575Z,6.62
2018-05-02T00:06:54.457Z,6.82
2018-05-02T00:09:21.397Z,7.82
2018-05-02T00:11:48.251Z,7.60
2018-05-02T00:14:15.126Z,7.93
2018-05-02T00:16:42.035Z,7.62
2018-05-02T00:19:08.925Z,7.15
2018-05-02T00:21:36.595Z,8.18
2018-05-02T00:24:03.461Z,7.65
2018-05-02T00:26:30.387Z,7.87
2018-05-02T00:28:57.241Z,7.50
2018-05-02T00:31:24.168Z,8.02
2018-05-02T00:33:51.837Z,7.37
2018-05-02T00:36:19.543Z,6.85
2018-05-02T00:38:46.409Z,7.55
2018-05-02T00:41:13.335Z,7.70
2018-05-02T00:43:40.265Z,8.10
2018-05-02T00:46:07.130Z,7.07
2018-05-02T00:48:34.108Z,8.38
2018-05-02T00:51:01.138Z,7.78
2018-05-02T00:53:28.045Z,7.68
2018-05-02T00:55:55.041Z,8.20
2018-05-02T00:58:21.985Z,7.62
2018-05-02T01:00:48.964Z,7.15
2018-05-02T01:03:15.808Z,7.35
2018-05-02T01:05:43.509Z,7.50
2018-05-02T01:08:10.437Z,8.70
2018-05-02T01:10:37.373Z,8.52
2018-05-02T01:13:04.408Z,7.62
2018-05-02T01:15:31.393Z,8.48
2018-05-02T01:17:58.265Z,8.50
2018-05-02T01:20:25.117Z,8.82
2018-05-02T01:22:52.037Z,8.07
2018-05-02T01:25:18.894Z,7.93
2018-05-02T01:27:45.817Z,8.90
2018-05-02T01:30:12.793Z,7.80
2018-05-02T01:32:39.650Z,9.07
2018-05-02T01:35:06.592Z,8.70
2018-05-02T01:37:33.505Z,8.32
2018-05-02T01:40:00.361Z,9.80
2018-05-02T01:42:27.299Z,8.88
2018-05-02T01:44:54.158Z,10.73
2018-05-02T01:47:21.009Z,9.73
2018-05-02T01:49:47.940Z,10.00
2018-05-02T01:52:14.796Z,10.10
2018-05-02T01:54:41.653Z,9.73
2018-05-02T01:57:08.574Z,9.30
2018-05-02T01:59:35.473Z,9.57
2018-05-02T02:02:03.202Z,8.10
2018-05-02T02:04:30.071Z,9.38
2018-05-02T02:06:57.751Z,10.70
2018-05-02T02:09:24.617Z,10.38
2018-05-02T02:11:51.544Z,10.13
2018-05-02T02:14:18.538Z,10.23
2018-05-02T02:16:45.450Z,9.55
2018-05-02T02:19:12.395Z,10.48
2018-05-02T02:21:39.250Z,11.00
2018-05-02T02:24:06.194Z,10.00
2018-05-02T02:26:33.046Z,9.57
2018-05-02T02:28:59.904Z,10.63
2018-05-02T02:31:26.882Z,10.60
2018-05-02T02:33:54.629Z,10.85
2018-05-02T02:36:21.551Z,9.52
2018-05-02T02:38:49.200Z,11.32
2018-05-02T02:41:16.125Z,10.30
2018-05-02T02:43:42.981Z,10.98
2018-05-02T02:46:09.828Z,10.50
2018-05-02T02:48:36.742Z,9.20
2018-05-02T02:51:04.413Z,10.70
2018-05-02T02:53:32.085Z,9.95
2018-05-02T02:55:59.004Z,10.45
2018-05-02T02:58:25.986Z,10.48
2018-05-02T03:00:52.848Z,9.65
2018-05-02T03:03:19.781Z,11.40
2018-05-02T03:05:46.660Z,10.05
2018-05-02T03:08:13.588Z,10.40
2018-05-02T03:10:40.511Z,11.07
2018-05-02T03:13:07.358Z,9.88
2018-05-02T03:15:34.288Z,10.55
2018-05-02T03:18:01.123Z,10.90
2018-05-02T03:20:28.784Z,10.27
2018-05-02T03:22:55.629Z,10.02
2018-05-02T03:25:22.599Z,10.55
2018-05-02T03:27:49.548Z,9.07
2018-05-02T03:30:16.479Z,9.68
2018-05-02T03:32:43.333Z,12.20
2018-05-02T03:35:10.190Z,9.70
2018-05-02T03:37:37.118Z,12.15
2018-05-02T03:40:04.077Z,11.40
2018-05-02T03:42:31.017Z,10.75
2018-05-02T03:44:57.873Z,10.80
2018-05-02T03:47:24.725Z,10.55
2018-05-02T03:49:51.645Z,10.43
2018-05-02T03:52:18.516Z,10.68
2018-05-02T03:54:45.437Z,10.20
2018-05-02T03:57:12.302Z,10.77
2018-05-02T03:59:51.365Z,9.43
2018-05-02T04:02:30.322Z,11.52
2018-05-02T04:05:10.146Z,11.70
2018-05-02T04:07:37.072Z,9.90
2018-05-02T04:10:04.081Z,12.02
2018-05-02T04:12:31.041Z,12.77
2018-05-02T04:14:57.978Z,11.30
2018-05-02T04:17:24.910Z,11.93
2018-05-02T04:19:52.573Z,11.25
2018-05-02T04:22:20.201Z,10.93
2018-05-02T04:24:47.895Z,11.65
2018-05-02T04:27:15.489Z,11.20
2018-05-02T04:29:43.233Z,10.10
2018-05-02T04:32:10.834Z,10.60
2018-05-02T04:34:37.763Z,10.38
2018-05-02T04:37:04.631Z,10.15
2018-05-02T04:39:31.485Z,10.20
2018-05-02T04:41:58.488Z,9.80
2018-05-02T04:44:25.821Z,10.43
2018-05-02T04:46:54.052Z,11.65
2018-05-02T04:49:23.935Z,10.93
2018-05-02T04:51:53.010Z,9.93
2018-05-02T04:54:20.458Z,11.45
2018-05-02T04:56:48.051Z,10.85
2018-05-02T04:59:14.905Z,11.27
2018-05-02T05:01:41.827Z,9.50
2018-05-02T05:04:08.688Z,10.30
2018-05-02T05:06:35.686Z,10.70
2018-05-02T05:09:02.712Z,11.10
2018-05-02T05:11:29.639Z,11.07
2018-05-02T05:13:56.492Z,10.85
2018-05-02T05:16:24.265Z,10.65
2018-05-02T05:18:51.127Z,10.75
2018-05-02T05:21:18.075Z,11.45
2018-05-02T05:23:44.955Z,11.12
2018-05-02T05:26:11.804Z,10.40
2018-05-02T05:28:38.740Z,11.02
2018-05-02T05:31:05.613Z,11.02
2018-05-02T05:33:32.536Z,11.23
2018-05-02T05:36:00.181Z,10.85
2018-05-02T05:38:27.781Z,11.18
2018-05-02T05:40:54.708Z,10.63
2018-05-02T05:43:21.628Z,9.40
2018-05-02T05:45:49.302Z,10.70
2018-05-02T05:48:17.046Z,10.80
2018-05-02T05:50:44.726Z,10.10
2018-05-02T05:53:12.337Z,10.65
2018-05-02T05:55:39.257Z,10.10
2018-05-02T05:58:06.188Z,10.25
2018-05-02T06:00:43.805Z,9.17
2018-05-02T06:03:11.039Z,9.90
2018-05-02T06:05:38.629Z,10.20
2018-05-02T06:08:05.577Z,10.07
2018-05-02T06:10:32.437Z,9.23
2018-05-02T06:12:59.368Z,8.83
2018-05-02T06:15:26.223Z,9.07
2018-05-02T06:17:53.152Z,9.83
2018-05-02T06:20:20.013Z,8.50
2018-05-02T06:22:47.003Z,10.77
2018-05-02T06:25:13.928Z,9.47
2018-05-02T06:27:40.847Z,9.03
2018-05-02T06:30:07.815Z,10.17
2018-05-02T06:32:34.681Z,9.27
2018-05-02T06:35:01.610Z,8.70
2018-05-02T06:37:28.465Z,8.87
2018-05-02T06:39:55.412Z,9.23
2018-05-02T06:42:22.309Z,9.00
2018-05-02T06:44:49.240Z,10.20
2018-05-02T06:47:16.073Z,11.23
2018-05-02T06:49:45.043Z,9.57
2018-05-02T06:52:11.933Z,9.43
2018-05-02T06:54:38.949Z,9.63
2018-05-02T06:57:05.802Z,9.13
2018-05-02T06:59:32.670Z,9.63
2018-05-02T07:01:59.609Z,7.90
2018-05-02T07:04:26.477Z,8.63
2018-05-02T07:06:53.394Z,7.70
2018-05-02T07:09:20.256Z,7.97
2018-05-02T07:11:47.186Z,8.90
2018-05-02T07:14:14.049Z,9.37
2018-05-02T07:16:41.274Z,11.00
2018-05-02T07:19:08.513Z,9.07
2018-05-02T07:21:35.449Z,9.70
2018-05-02T07:24:02.389Z,10.17
2018-05-02T07:26:29.248Z,11.30
2018-05-02T07:28:56.179Z,11.63
2018-05-02T07:31:23.101Z,11.60
2018-05-02T07:33:49.963Z,11.47
2018-05-02T07:36:16.953Z,9.90
2018-05-02T07:38:43.800Z,10.93
2018-05-02T07:41:10.701Z,10.83
2018-05-02T07:43:37.549Z,10.47
2018-05-02T07:46:04.524Z,10.77
2018-05-02T07:48:31.401Z,10.60
2018-05-02T07:50:58.317Z,9.93
2018-05-02T07:53:25.159Z,10.07
2018-05-02T07:55:52.092Z,9.20
2018-05-02T07:58:19.693Z,10.40
2018-05-02T08:00:46.573Z,11.47
2018-05-02T08:03:13.490Z,9.40
2018-05-02T08:05:40.357Z,9.43
2018-05-02T08:08:07.262Z,9.37
2018-05-02T08:10:34.135Z,9.83
2018-05-02T08:13:01.080Z,9.03
2018-05-02T08:15:28.025Z,9.73
2018-05-02T08:17:54.971Z,9.73
2018-05-02T08:20:21.838Z,8.87
2018-05-02T08:22:48.773Z,8.10
2018-05-02T08:25:15.640Z,9.00
2018-05-02T08:27:42.497Z,9.40
2018-05-02T08:30:09.429Z,8.87
2018-05-02T08:32:36.282Z,7.50
2018-05-02T08:35:03.302Z,8.50
2018-05-02T08:37:30.165Z,8.90
2018-05-02T08:39:57.157Z,9.07
2018-05-02T08:42:24.084Z,8.27
2018-05-02T08:44:51.687Z,9.20
2018-05-02T08:47:18.573Z,9.53
2018-05-02T08:49:45.489Z,10.37
2018-05-02T08:52:12.429Z,9.47
2018-05-02T08:54:39.361Z,9.10
2018-05-02T08:57:06.335Z,7.33
2018-05-02T08:59:33.252Z,8.10
2018-05-02T09:02:00.216Z,7.93
2018-05-02T09:04:27.177Z,7.67
2018-05-02T09:06:54.087Z,7.13
2018-05-02T09:09:21.033Z,7.43
2018-05-02T09:11:47.908Z,7.50
2018-05-02T09:14:14.837Z,7.20
2018-05-02T09:16:41.719Z,7.53
2018-05-02T09:19:08.760Z,8.37
2018-05-02T09:21:35.685Z,7.40
2018-05-02T09:24:02.620Z,8.50
2018-05-02T09:26:29.480Z,8.00
2018-05-02T09:28:56.398Z,6.00
2018-05-02T09:31:23.268Z,7.17
2018-05-02T09:33:50.229Z,7.20
2018-05-02T09:36:17.075Z,6.37
2018-05-02T09:38:43.989Z,6.77
2018-05-02T09:41:10.852Z,5.90
2018-05-02T09:43:37.786Z,7.53
2018-05-02T09:46:04.761Z,6.40
2018-05-02T09:48:31.720Z,5.40
2018-05-02T09:50:58.677Z,6.07
2018-05-02T09:53:26.373Z,6.70
2018-05-02T09:55:53.251Z,6.80
2018-05-02T09:58:25.117Z,5.87
2018-05-02T10:00:52.195Z,5.97
2018-05-02T10:03:19.120Z,6.77
2018-05-02T10:05:46.017Z,5.43
2018-05-02T10:08:21.400Z,5.80
2018-05-02T10:10:51.531Z,5.53
2018-05-02T10:13:18.594Z,5.47
2018-05-02T10:15:45.451Z,5.17
2018-05-02T10:18:13.452Z,5.50
2018-05-02T10:20:40.425Z,5.07
2018-05-02T10:23:07.426Z,5.30
2018-05-02T10:25:35.093Z,4.37
2018-05-02T10:28:03.198Z,4.30
2018-05-02T10:30:30.138Z,4.70
2018-05-02T10:33:02.104Z,5.30
2018-05-02T10:35:33.240Z,4.40
2018-05-02T10:38:00.289Z,4.37
2018-05-02T10:40:27.309Z,5.50
2018-05-02T10:42:54.999Z,5.17
2018-05-02T10:45:21.933Z,4.13
2018-05-02T10:47:48.857Z,3.87
2018-05-02T10:50:15.759Z,4.50
2018-05-02T10:52:42.681Z,4.50
2018-05-02T10:55:09.733Z,4.00
2018-05-02T10:57:36.653Z,5.07
2018-05-02T11:00:04.273Z,3.80
2018-05-02T11:02:31.224Z,3.93
2018-05-02T11:05:01.033Z,3.30
2018-05-02T11:07:39.281Z,3.73
2018-05-02T11:10:15.342Z,4.20
2018-05-02T11:12:43.111Z,4.50
2018-05-02T11:15:10.544Z,4.07
2018-05-02T11:17:37.474Z,4.20
2018-05-02T11:20:04.384Z,4.27
2018-05-02T11:22:31.288Z,4.27
2018-05-02T11:24:58.210Z,3.83
2018-05-02T11:27:25.191Z,4.87
2018-05-02T11:29:52.053Z,3.40
2018-05-02T11:32:18.966Z,3.40
2018-05-02T11:34:46.164Z,3.80
2018-05-02T11:37:13.050Z,2.73
2018-05-02T11:39:39.965Z,2.93
2018-05-02T11:42:06.886Z,3.63
2018-05-02T11:44:33.814Z,3.60
2018-05-02T11:47:01.466Z,4.50
2018-05-02T11:49:28.381Z,4.90
2018-05-02T11:51:55.242Z,4.60
2018-05-02T11:54:24.628Z,6.50
2018-05-02T11:56:52.951Z,4.00
2018-05-02T11:59:20.373Z,5.10
2018-05-02T12:01:47.316Z,3.60
2018-05-02T12:04:15.669Z,4.67
2018-05-02T12:06:44.460Z,5.20
2018-05-02T12:09:12.675Z,5.53
2018-05-02T12:11:42.252Z,3.80
2018-05-02T12:14:21.352Z,3.10
2018-05-02T12:17:01.021Z,4.00
2018-05-02T12:19:28.949Z,4.03
2018-05-02T12:21:59.389Z,3.10
2018-05-02T12:24:27.784Z,3.30
2018-05-02T12:26:54.811Z,4.17
2018-05-02T12:29:24.781Z,2.97
2018-05-02T12:31:51.727Z,2.90
2018-05-02T12:34:18.664Z,3.13
2018-05-02T12:36:47.029Z,2.80
2018-05-02T12:39:15.149Z,3.83
2018-05-02T12:41:43.777Z,3.70
2018-05-02T12:44:12.701Z,3.03
2018-05-02T12:46:39.759Z,2.97
2018-05-02T12:49:06.980Z,5.33
2018-05-02T12:51:35.082Z,3.80
2018-05-02T12:54:04.230Z,3.47
2018-05-02T12:56:33.323Z,3.80
2018-05-02T12:59:03.771Z,3.40
2018-05-02T13:01:30.696Z,3.00
2018-05-02T13:03:58.293Z,3.87
2018-05-02T13:06:25.612Z,3.70
2018-05-02T13:08:56.145Z,3.97
2018-05-02T13:11:31.506Z,4.30
2018-05-02T13:13:58.422Z,3.33
2018-05-02T13:16:26.093Z,3.47
2018-05-02T13:18:53.989Z,3.40
2018-05-02T13:21:21.249Z,3.40
2018-05-02T13:23:48.102Z,4.23
2018-05-02T13:26:18.716Z,4.20
2018-05-02T13:28:52.389Z,3.10
2018-05-02T13:31:21.709Z,2.83
2018-05-02T13:33:49.363Z,2.87
2018-05-02T13:36:16.917Z,2.97
2018-05-02T13:41:27.525Z,3.30
2018-05-02T13:43:54.583Z,3.27
2018-05-02T13:46:23.821Z,3.60
2018-05-02T13:48:52.494Z,3.30
2018-05-02T13:51:21.801Z,3.50
2018-05-02T13:53:49.232Z,3.47
2018-05-02T13:56:16.554Z,3.17
2018-05-02T13:58:44.741Z,3.63
2018-05-02T14:01:12.943Z,7.60
2018-05-02T14:03:39.954Z,4.67
2018-05-02T14:06:06.899Z,6.67
2018-05-02T14:08:33.902Z,4.40
2018-05-02T14:11:07.461Z,4.03
2018-05-02T14:13:34.321Z,4.10
2018-05-02T14:16:03.075Z,3.93
2018-05-02T14:18:30.037Z,4.40
2018-05-02T14:20:57.694Z,3.60
2018-05-02T14:23:25.973Z,3.20
2018-05-02T14:25:53.657Z,3.47
2018-05-02T14:28:21.848Z,4.03
2018-05-02T14:30:52.822Z,3.20
2018-05-02T14:33:24.029Z,2.70
2018-05-02T14:35:53.843Z,3.67
2018-05-02T14:38:20.882Z,3.40
2018-05-02T14:40:47.919Z,3.80
2018-05-02T14:43:15.496Z,3.70
2018-05-02T14:45:43.493Z,3.53
2018-05-02T14:48:10.937Z,3.47
2018-05-02T14:50:37.803Z,4.17
2018-05-02T14:53:04.729Z,3.80
2018-05-02T14:55:32.992Z,3.33
2018-05-02T14:58:01.050Z,3.40
2018-05-02T15:00:34.171Z,3.53
2018-05-02T15:03:01.349Z,3.87
2018-05-02T15:05:28.532Z,3.40
2018-05-02T15:07:56.332Z,3.20
2018-05-02T15:10:23.283Z,2.93
2018-05-02T15:12:50.150Z,3.50
2018-05-02T15:15:24.025Z,3.67
2018-05-02T15:17:51.594Z,3.80
2018-05-02T15:20:22.685Z,3.87
2018-05-02T15:22:49.608Z,3.60
2018-05-02T15:25:21.783Z,3.17
2018-05-02T15:27:50.318Z,3.30
2018-05-02T15:30:17.184Z,3.73
2018-05-02T15:32:44.164Z,4.40
2018-05-02T15:35:11.690Z,3.47
2018-05-02T15:37:40.438Z,4.00
2018-05-02T15:40:08.449Z,5.23
2018-05-02T15:42:35.313Z,6.10
2018-05-02T15:45:02.274Z,3.30
2018-05-02T15:47:30.324Z,3.50
2018-05-02T15:49:57.309Z,3.07
2018-05-02T15:52:24.682Z,3.30
2018-05-02T15:54:51.701Z,3.93
2018-05-02T15:57:18.662Z,4.83
2018-05-02T15:59:46.060Z,3.27
2018-05-02T16:02:13.092Z,2.97
2018-05-02T16:04:41.225Z,3.40
2018-05-02T16:07:08.989Z,3.30
2018-05-02T16:09:35.889Z,3.70
2018-05-02T16:12:02.969Z,3.47
2018-05-02T16:14:29.921Z,5.00
2018-05-02T16:16:56.786Z,3.30
2018-05-02T16:19:23.697Z,2.80
2018-05-02T16:21:50.673Z,3.33
2018-05-02T16:24:18.285Z,3.83
2018-05-02T16:26:45.382Z,5.33
2018-05-02T16:29:12.252Z,4.13
2018-05-02T16:31:40.866Z,3.50
2018-05-02T16:34:07.982Z,3.33
2018-05-02T16:36:35.606Z,3.63
2018-05-02T16:39:02.849Z,3.40
2018-05-02T16:41:29.983Z,2.80
2018-05-02T16:43:56.944Z,3.23
2018-05-02T16:46:23.794Z,3.70
2018-05-02T16:48:51.821Z,3.30
2018-05-02T16:51:18.890Z,3.30
2018-05-02T16:53:45.879Z,2.87
2018-05-02T16:56:12.799Z,3.07
2018-05-02T16:58:40.742Z,3.10
2018-05-02T17:01:07.673Z,3.50
2018-05-02T17:03:35.361Z,3.50
2018-05-02T17:06:02.338Z,2.87
2018-05-02T17:08:37.678Z,3.60
2018-05-02T17:11:05.566Z,3.00
2018-05-02T17:13:32.563Z,3.70
2018-05-02T17:15:59.477Z,3.40
2018-05-02T17:18:27.189Z,3.80
2018-05-02T17:20:54.082Z,3.57
2018-05-02T17:23:22.378Z,3.70
2018-05-02T17:25:49.293Z,4.37
2018-05-02T17:28:16.162Z,4.30
2018-05-02T17:30:43.840Z,4.47
2018-05-02T17:33:10.704Z,4.00
2018-05-02T17:35:37.629Z,3.43
2018-05-02T17:38:04.567Z,4.20
2018-05-02T17:40:32.255Z,3.53
2018-05-02T17:42:59.307Z,3.10
2018-05-02T17:45:26.246Z,3.23
2018-05-02T17:47:56.963Z,2.63
2018-05-02T17:50:24.324Z,3.33
2018-05-02T17:52:51.343Z,4.70
2018-05-02T17:55:18.176Z,4.50
2018-05-02T17:57:45.260Z,4.60
2018-05-02T18:00:12.213Z,3.80
2018-05-02T18:02:39.149Z,4.00
2018-05-02T18:05:06.908Z,4.97
2018-05-02T18:07:34.599Z,4.43
2018-05-02T18:10:01.525Z,5.13
2018-05-02T18:12:29.112Z,4.93
2018-05-02T18:14:56.078Z,5.00
2018-05-02T18:17:23.032Z,4.83
2018-05-02T18:19:49.983Z,4.47
2018-05-02T18:22:16.868Z,4.67
2018-05-02T18:24:43.802Z,4.57
2018-05-02T18:27:10.721Z,4.43
2018-05-02T18:29:37.763Z,3.00
2018-05-02T18:32:04.717Z,3.30
2018-05-02T18:34:31.713Z,4.00
2018-05-02T18:36:58.790Z,4.50
2018-05-02T18:39:25.701Z,3.73
2018-05-02T18:41:52.585Z,4.00
2018-05-02T18:44:19.645Z,4.10
2018-05-02T18:46:46.567Z,4.10
2018-05-02T18:49:14.373Z,4.27
2018-05-02T18:51:41.889Z,3.63
2018-05-02T18:54:08.953Z,3.97
2018-05-02T18:56:35.809Z,4.27
2018-05-02T18:59:02.880Z,4.50
2018-05-02T19:01:30.651Z,4.97
2018-05-02T19:03:57.640Z,5.00
2018-05-02T19:06:24.701Z,4.10
2018-05-02T19:08:52.025Z,4.40
2018-05-02T19:11:20.128Z,3.87
2018-05-02T19:13:52.766Z,4.10
2018-05-02T19:16:19.759Z,4.27
2018-05-02T19:18:52.705Z,3.63
2018-05-02T19:21:19.623Z,4.03
2018-05-02T19:23:46.630Z,4.50
2018-05-02T19:26:19.571Z,4.53
2018-05-02T19:28:46.899Z,5.90
2018-05-02T19:31:19.881Z,7.10
2018-05-02T19:33:52.820Z,5.03
2018-05-02T19:36:20.288Z,4.90
2018-05-02T19:38:47.250Z,4.53
2018-05-02T19:41:20.071Z,3.90
2018-05-02T19:43:52.983Z,4.07
2018-05-02T19:46:20.620Z,4.47
2018-05-02T19:48:49.129Z,4.87
2018-05-02T19:51:22.708Z,3.93
2018-05-02T19:53:50.437Z,4.80
2018-05-02T19:56:17.332Z,4.50
2018-05-02T19:58:44.295Z,4.77
2018-05-02T20:01:17.223Z,4.63
2018-05-02T20:03:44.173Z,4.40
2018-05-02T20:06:11.261Z,4.30
2018-05-02T20:08:44.990Z,4.47
2018-05-02T20:11:18.014Z,4.10
2018-05-02T20:13:51.050Z,5.27
2018-05-02T20:16:18.728Z,6.30
2018-05-02T20:18:45.673Z,6.17
2018-05-02T20:21:13.296Z,6.30
2018-05-02T20:23:40.320Z,5.40
2018-05-02T20:26:07.228Z,5.53
2018-05-02T20:28:35.154Z,5.77
2018-05-02T20:31:02.164Z,5.80
2018-05-02T20:33:29.043Z,4.87
2018-05-02T20:35:55.968Z,5.40
2018-05-02T20:38:22.880Z,5.57
2018-05-02T20:40:50.561Z,6.17
2018-05-02T20:43:17.429Z,5.77
2018-05-02T20:45:44.364Z,5.70
2018-05-02T20:48:11.925Z,5.20
2018-05-02T20:50:41.037Z,5.07
2018-05-02T20:53:08.046Z,5.50
2018-05-02T20:55:36.290Z,6.07
2018-05-02T20:58:03.395Z,4.93
2018-05-02T21:00:30.267Z,4.80
2018-05-02T21:02:57.206Z,5.03
2018-05-02T21:05:25.174Z,4.90
2018-05-02T21:07:52.638Z,5.83
2018-05-02T21:10:20.534Z,5.47
2018-05-02T21:12:47.631Z,5.93
2018-05-02T21:15:16.714Z,5.00
2018-05-02T21:17:48.982Z,5.60
2018-05-02T21:20:16.815Z,5.63
2018-05-02T21:22:43.772Z,5.87
2018-05-02T21:25:28.364Z,5.40
2018-05-02T21:27:55.226Z,5.47
2018-05-02T21:30:22.167Z,5.47
2018-05-02T21:32:49.045Z,5.77
2018-05-02T21:35:16.043Z,5.77
2018-05-02T21:37:42.966Z,5.00
2018-05-02T21:40:09.961Z,5.87
2018-05-02T21:42:36.869Z,6.80
2018-05-02T21:45:03.738Z,5.60
2018-05-02T21:47:30.649Z,5.90
2018-05-02T21:49:58.245Z,5.50
2018-05-02T21:52:25.172Z,7.30
2018-05-02T21:54:52.133Z,6.30
2018-05-02T21:57:19.075Z,6.93
2018-05-02T21:59:46.049Z,6.40
2018-05-02T22:02:12.918Z,6.00
2018-05-02T22:04:39.872Z,6.47
2018-05-02T22:07:06.810Z,6.83
2018-05-02T22:09:33.717Z,5.83
2018-05-02T22:12:00.627Z,5.43
2018-05-02T22:14:28.309Z,5.90
2018-05-02T22:16:56.121Z,6.00
2018-05-02T22:19:23.053Z,5.17
2018-05-02T22:21:49.912Z,5.27
2018-05-02T22:24:16.844Z,6.27
2018-05-02T22:26:43.817Z,5.80
2018-05-02T22:29:10.753Z,5.67
2018-05-02T22:31:37.638Z,5.23
2018-05-02T22:34:05.305Z,5.60
2018-05-02T22:36:32.164Z,5.53
2018-05-02T22:38:59.035Z,5.30
2018-05-02T22:41:25.973Z,6.00
2018-05-02T22:43:52.881Z,4.77
2018-05-02T22:46:19.750Z,6.20
2018-05-02T22:48:46.738Z,6.00
2018-05-02T22:51:13.625Z,5.70
2018-05-02T22:53:40.477Z,4.90
2018-05-02T22:56:07.398Z,5.97
2018-05-02T22:58:34.252Z,5.87
2018-05-02T23:01:01.167Z,5.90
2018-05-02T23:03:28.022Z,5.77
2018-05-02T23:05:54.955Z,5.50
2018-05-02T23:08:21.880Z,5.10
2018-05-02T23:10:48.813Z,5.40
2018-05-02T23:13:15.658Z,5.60
2018-05-02T23:15:42.573Z,5.33
2018-05-02T23:18:09.497Z,5.67
2018-05-02T23:20:36.419Z,5.90
2018-05-02T23:23:03.402Z,5.97
2018-05-02T23:25:30.349Z,5.90
2018-05-02T23:27:57.202Z,5.30
2018-05-02T23:30:24.118Z,5.60
2018-05-02T23:32:51.036Z,5.67
2018-05-02T23:35:17.896Z,6.13
2018-05-02T23:37:44.814Z,5.60
2018-05-02T23:40:11.669Z,6.20
2018-05-02T23:42:38.593Z,5.90
2018-05-02T23:45:05.505Z,5.70
2018-05-02T23:47:32.404Z,4.93
2018-05-02T23:49:59.328Z,5.50
2018-05-02T23:52:26.176Z,6.27
2018-05-02T23:54:53.095Z,6.30
2018-05-02T23:57:19.963Z,6.00
2018-05-02T23:59:46.893Z,5.20
